createdAt,value
2017-12-05T00:00:42.778Z,101339
2017-12-05T00:03:11.017Z,101332
2017-12-05T00:05:39.301Z,101333
2017-12-05T00:08:07.526Z,101335
2017-12-05T00:10:35.783Z,101342
2017-12-05T00:13:04.101Z,101329
2017-12-05T00:15:32.376Z,101327
2017-12-05T00:18:00.598Z,101330
2017-12-05T00:20:28.920Z,101337
2017-12-05T00:22:57.218Z,101345
2017-12-05T00:25:25.467Z,101336
2017-12-05T00:27:54.530Z,101338
2017-12-05T00:30:22.800Z,101338
2017-12-05T00:32:51.077Z,101343
2017-12-05T00:35:19.453Z,101346
2017-12-05T00:37:47.686Z,101360
2017-12-05T00:40:15.971Z,101355
2017-12-05T00:42:44.310Z,101349
2017-12-05T00:45:13.323Z,101364
2017-12-05T00:47:41.554Z,101356
2017-12-05T00:50:09.916Z,101352
2017-12-05T00:52:38.142Z,101358
2017-12-05T00:55:07.163Z,101360
2017-12-05T00:57:36.218Z,101358
2017-12-05T01:00:05.204Z,101366
2017-12-05T01:02:33.426Z,101364
2017-12-05T01:05:01.715Z,101364
2017-12-05T01:07:29.991Z,101370
2017-12-05T01:09:58.208Z,101364
2017-12-05T01:12:26.531Z,101361
2017-12-05T01:14:54.767Z,101373
2017-12-05T01:17:23.813Z,101363
2017-12-05T01:19:52.128Z,101362
2017-12-05T01:22:21.146Z,101363
2017-12-05T01:24:49.393Z,101352
2017-12-05T01:27:17.719Z,101359
2017-12-05T01:29:45.934Z,101362
2017-12-05T01:32:14.158Z,101363
2017-12-05T01:34:42.544Z,101348
2017-12-05T01:37:11.117Z,101359
2017-12-05T01:39:39.354Z,101363
2017-12-05T01:42:07.633Z,101351
2017-12-05T01:44:35.880Z,101357
2017-12-05T01:47:04.124Z,101358
2017-12-05T01:49:32.456Z,101356
2017-12-05T01:52:00.692Z,101344
2017-12-05T01:54:28.952Z,101342
2017-12-05T01:56:57.253Z,101350
2017-12-05T01:59:25.578Z,101348
2017-12-05T02:01:53.819Z,101340
2017-12-05T02:04:22.131Z,101343
2017-12-05T02:06:50.392Z,101344
2017-12-05T02:09:19.526Z,101343
2017-12-05T02:11:47.838Z,101333
2017-12-05T02:14:16.086Z,101337
2017-12-05T02:16:44.342Z,101340
2017-12-05T02:19:12.639Z,101338
2017-12-05T02:21:41.650Z,101327
2017-12-05T02:24:09.929Z,101329
2017-12-05T02:26:38.165Z,101330
2017-12-05T02:29:06.436Z,101333
2017-12-05T02:31:34.752Z,101333
2017-12-05T02:34:03.011Z,101339
2017-12-05T02:36:31.275Z,101332
2017-12-05T02:38:59.570Z,101334
2017-12-05T02:41:27.816Z,101332
2017-12-05T02:43:56.062Z,101343
2017-12-05T02:46:24.389Z,101345
2017-12-05T02:48:52.661Z,101342
2017-12-05T02:51:20.934Z,101339
2017-12-05T02:53:49.332Z,101341
2017-12-05T02:56:17.572Z,101342
2017-12-05T02:58:45.826Z,101343
2017-12-05T03:01:14.122Z,101342
2017-12-05T03:03:42.354Z,101336
2017-12-05T03:06:10.585Z,101336
2017-12-05T03:08:38.890Z,101337
2017-12-05T03:11:07.121Z,101336
2017-12-05T03:13:35.349Z,101334
2017-12-05T03:16:03.729Z,101334
2017-12-05T03:18:31.996Z,101338
2017-12-05T03:21:00.243Z,101338
2017-12-05T03:23:28.555Z,101334
2017-12-05T03:25:56.793Z,101327
2017-12-05T03:28:25.021Z,101333
2017-12-05T03:30:53.372Z,101339
2017-12-05T03:33:21.644Z,101334
2017-12-05T03:35:49.890Z,101326
2017-12-05T03:38:18.197Z,101335
2017-12-05T03:40:47.133Z,101338
2017-12-05T03:43:16.149Z,101340
2017-12-05T03:45:44.438Z,101344
2017-12-05T03:48:12.702Z,101342
2017-12-05T03:50:41.033Z,101351
2017-12-05T03:53:09.315Z,101336
2017-12-05T03:55:38.344Z,101342
2017-12-05T03:58:06.664Z,101363
2017-12-05T04:00:34.940Z,101346
2017-12-05T04:03:03.238Z,101346
2017-12-05T04:05:32.321Z,101339
2017-12-05T04:08:00.558Z,101341
2017-12-05T04:10:28.802Z,101341
2017-12-05T04:12:57.892Z,101347
2017-12-05T04:15:26.930Z,101346
2017-12-05T04:17:55.168Z,101339
2017-12-05T04:20:23.499Z,101337
2017-12-05T04:22:51.737Z,101331
2017-12-05T04:25:19.987Z,101329
2017-12-05T04:27:49.012Z,101339
2017-12-05T12:47:57.331Z,101241
2017-12-05T12:50:25.612Z,101227
2017-12-05T12:52:53.854Z,101219
2017-12-05T12:55:22.253Z,101232
2017-12-05T12:57:50.477Z,101241
2017-12-05T13:00:18.709Z,101237
2017-12-05T13:02:47.009Z,101240
2017-12-05T13:05:15.315Z,101238
2017-12-05T13:07:43.569Z,101238
2017-12-05T13:10:11.875Z,101233
2017-12-05T13:12:40.111Z,101234
2017-12-05T13:15:08.409Z,101228
2017-12-05T13:17:36.719Z,101223
2017-12-05T13:20:04.978Z,101225
2017-12-05T13:22:33.245Z,101219
2017-12-05T13:25:01.555Z,101218
2017-12-05T13:27:29.835Z,101210
2017-12-05T13:29:58.113Z,101220
2017-12-05T13:32:26.510Z,101218
2017-12-05T13:34:54.783Z,101227
2017-12-05T13:37:23.055Z,101215
2017-12-05T13:39:51.396Z,101230
2017-12-05T13:42:19.678Z,101224
2017-12-05T13:44:47.966Z,101217
2017-12-05T13:47:17.035Z,101226
2017-12-05T13:49:45.270Z,101227
2017-12-05T13:52:13.538Z,101228
2017-12-05T13:54:41.941Z,101226
2017-12-05T13:57:10.244Z,101236
2017-12-05T13:59:38.503Z,101225
2017-12-05T14:02:06.817Z,101223
2017-12-05T14:04:35.823Z,101232
2017-12-05T14:07:04.093Z,101227
2017-12-05T14:09:32.375Z,101239
2017-12-05T14:12:00.741Z,101230
2017-12-05T14:14:29.738Z,101220
2017-12-05T14:16:57.979Z,101230
2017-12-05T14:19:26.317Z,101233
2017-12-05T14:21:54.589Z,101235
2017-12-05T14:24:22.901Z,101233
2017-12-05T14:26:51.131Z,101243
2017-12-05T14:29:19.605Z,101240
2017-12-05T14:31:47.898Z,101238
2017-12-05T14:34:16.227Z,101229
2017-12-05T14:36:44.497Z,101240
2017-12-05T14:39:12.807Z,101230
2017-12-05T14:41:41.097Z,101242
2017-12-05T14:44:09.358Z,101235
2017-12-05T14:46:37.682Z,101233
2017-12-05T14:49:05.981Z,101244
2017-12-05T14:51:34.260Z,101239
2017-12-05T14:54:02.610Z,101242
2017-12-05T14:56:30.886Z,101252
2017-12-05T14:58:59.134Z,101249
2017-12-05T15:01:27.506Z,101245
2017-12-05T15:03:55.772Z,101248
2017-12-05T15:06:24.109Z,101253
2017-12-05T15:08:52.443Z,101252
2017-12-05T15:11:20.769Z,101267
2017-12-05T15:13:49.130Z,101260
2017-12-05T15:16:17.648Z,101262
2017-12-05T15:18:46.012Z,101262
2017-12-05T15:21:14.310Z,101249
2017-12-05T15:23:42.673Z,101257
2017-12-05T15:26:11.045Z,101264
2017-12-05T15:28:40.069Z,101259
2017-12-05T15:31:08.453Z,101267
2017-12-05T15:33:36.705Z,101264
2017-12-05T15:36:05.731Z,101260
2017-12-05T15:38:34.098Z,101246
2017-12-05T15:41:02.348Z,101260
2017-12-05T15:43:31.344Z,101268
2017-12-05T15:46:00.460Z,101261
2017-12-05T15:48:28.694Z,101262
2017-12-05T15:50:57.776Z,101257
2017-12-05T15:53:26.192Z,101266
2017-12-05T15:55:55.182Z,101252
2017-12-05T15:58:23.466Z,101257
2017-12-05T16:00:51.785Z,101267
2017-12-05T16:03:20.789Z,101265
2017-12-05T16:05:49.125Z,101278
2017-12-05T16:08:17.421Z,101273
2017-12-05T16:10:45.695Z,101271
2017-12-05T16:13:13.945Z,101270
2017-12-05T16:15:42.235Z,101277
2017-12-05T16:18:10.535Z,101281
2017-12-05T16:20:38.788Z,101278
2017-12-05T16:23:07.149Z,101272
2017-12-05T16:25:35.415Z,101261
2017-12-05T16:28:03.712Z,101271
2017-12-05T16:30:32.021Z,101269
2017-12-05T16:33:00.296Z,101271
2017-12-05T16:35:28.519Z,101274
2017-12-05T16:37:57.701Z,101274
2017-12-05T16:40:25.977Z,101274
2017-12-05T16:42:55.096Z,101282
2017-12-05T16:45:23.504Z,101277
2017-12-05T16:47:51.857Z,101276
2017-12-05T16:50:20.098Z,101277
2017-12-05T16:52:48.458Z,101269
2017-12-05T16:55:17.526Z,101274
2017-12-05T16:57:45.773Z,101278
2017-12-05T17:00:14.122Z,101273
2017-12-05T17:02:42.384Z,101270
2017-12-05T17:05:10.674Z,101277
2017-12-05T17:07:39.755Z,101280
2017-12-05T17:10:07.999Z,101279
2017-12-05T17:12:36.268Z,101281
2017-12-05T17:15:04.561Z,101284
2017-12-05T17:17:32.897Z,101276
2017-12-05T17:20:01.938Z,101275
2017-12-05T17:22:30.330Z,101288
2017-12-05T17:24:58.676Z,101291
2017-12-05T17:27:28.408Z,101274
2017-12-05T17:29:56.803Z,101283
2017-12-05T17:32:25.160Z,101284
2017-12-05T17:34:53.481Z,101278
2017-12-05T17:37:21.799Z,101282
2017-12-05T17:39:50.069Z,101287
2017-12-05T17:42:19.120Z,101267
2017-12-05T17:44:47.531Z,101272
2017-12-05T17:47:15.863Z,101275
2017-12-05T17:49:44.139Z,101261
2017-12-05T17:52:12.449Z,101273
2017-12-05T17:54:40.707Z,101265
2017-12-05T17:57:09.062Z,101260
2017-12-05T17:59:37.405Z,101265
2017-12-05T18:02:05.659Z,101263
2017-12-05T18:04:33.928Z,101258
2017-12-05T18:07:02.228Z,101250
2017-12-05T18:09:30.534Z,101258
2017-12-05T18:11:58.803Z,101269
2017-12-05T18:14:27.122Z,101261
2017-12-05T18:16:56.190Z,101249
2017-12-05T18:19:24.636Z,101263
2017-12-05T18:21:53.101Z,101272
2017-12-05T18:24:21.388Z,101263
2017-12-05T18:26:49.668Z,101269
2017-12-05T18:29:18.073Z,101273
2017-12-05T18:31:47.131Z,101262
2017-12-05T18:34:15.370Z,101266
2017-12-05T18:36:45.248Z,101261
2017-12-05T18:39:13.504Z,101275
2017-12-05T18:41:41.753Z,101281
2017-12-05T18:44:10.170Z,101276
2017-12-05T18:46:38.416Z,101280
2017-12-05T18:49:06.665Z,101272
2017-12-05T18:51:35.801Z,101275
2017-12-05T18:54:04.055Z,101276
2017-12-05T18:56:32.391Z,101275
2017-12-05T18:59:00.835Z,101280
2017-12-05T19:01:29.077Z,101271
2017-12-05T19:03:58.091Z,101269
2017-12-05T19:06:26.498Z,101277
2017-12-05T19:08:54.751Z,101281
2017-12-05T19:11:23.025Z,101276
2017-12-05T19:13:51.344Z,101278
2017-12-05T19:16:19.591Z,101284
2017-12-05T19:18:47.851Z,101277
2017-12-05T19:21:17.052Z,101280
2017-12-05T19:23:45.320Z,101277
2017-12-05T19:26:13.596Z,101282
2017-12-05T19:28:42.100Z,101284
2017-12-05T19:31:10.385Z,101281
2017-12-05T19:33:38.665Z,101285
2017-12-05T19:36:07.004Z,101279
2017-12-05T19:38:35.235Z,101283
2017-12-05T19:41:03.491Z,101269
2017-12-05T19:43:31.823Z,101264
2017-12-05T19:46:00.136Z,101272
2017-12-05T19:48:28.428Z,101272
2017-12-05T19:50:56.829Z,101280
2017-12-05T19:53:25.105Z,101281
2017-12-05T19:55:54.118Z,101280
2017-12-05T19:58:22.497Z,101277
2017-12-05T20:00:50.877Z,101273
2017-12-05T20:03:19.162Z,101275
2017-12-05T20:05:47.513Z,101270
2017-12-05T20:08:16.596Z,101272
2017-12-05T20:10:44.886Z,101265
2017-12-05T20:13:13.321Z,101272
2017-12-05T20:15:41.688Z,101268
2017-12-05T20:18:09.961Z,101282
2017-12-05T20:20:38.329Z,101275
2017-12-05T20:23:07.443Z,101276
2017-12-05T20:25:35.754Z,101274
2017-12-05T20:28:04.230Z,101273
2017-12-05T20:30:33.656Z,101256
2017-12-05T20:33:02.964Z,101268
2017-12-05T20:35:31.239Z,101263
2017-12-05T20:37:59.602Z,101255
2017-12-05T20:40:28.705Z,101277
2017-12-05T20:42:57.746Z,101270
2017-12-05T20:45:26.333Z,101266
2017-12-05T20:47:54.651Z,101270
2017-12-05T20:50:23.677Z,101268
2017-12-05T20:52:51.934Z,101259
2017-12-05T20:55:20.411Z,101250
2017-12-05T20:57:50.045Z,101243
2017-12-05T21:00:18.753Z,101251
2017-12-05T21:02:47.004Z,101244
2017-12-05T21:05:16.164Z,101257
2017-12-05T21:07:45.228Z,101256
2017-12-05T21:10:13.488Z,101257
2017-12-05T21:12:41.880Z,101243
2017-12-05T21:15:10.198Z,101271
2017-12-05T21:17:39.208Z,101266
2017-12-05T21:20:07.507Z,101262
2017-12-05T21:22:35.982Z,101263
2017-12-05T21:25:04.313Z,101252
2017-12-05T21:27:33.399Z,101262
2017-12-05T21:30:01.875Z,101269
2017-12-05T21:32:30.127Z,101267
2017-12-05T21:34:58.494Z,101265
2017-12-05T21:37:26.844Z,101268
2017-12-05T21:39:55.237Z,101271
2017-12-05T21:42:23.477Z,101276
2017-12-05T21:44:52.635Z,101259
2017-12-05T21:47:20.960Z,101256
2017-12-05T21:49:49.245Z,101257
2017-12-05T21:52:17.661Z,101252
2017-12-05T21:54:45.907Z,101248
2017-12-05T21:57:14.152Z,101259
2017-12-05T21:59:43.287Z,101249
2017-12-05T22:02:11.619Z,101250
2017-12-05T22:04:40.647Z,101248
2017-12-05T22:07:08.982Z,101251
2017-12-05T22:09:38.635Z,101258
2017-12-05T22:12:06.924Z,101253
2017-12-05T22:14:35.991Z,101248
2017-12-05T22:17:04.273Z,101253
2017-12-05T22:19:32.537Z,101243
2017-12-05T22:22:00.857Z,101242
2017-12-05T22:24:29.177Z,101237
2017-12-05T22:26:58.364Z,101251
2017-12-05T22:29:26.606Z,101250
2017-12-05T22:31:54.887Z,101236
2017-12-05T22:34:23.285Z,101237
2017-12-05T22:36:51.517Z,101246
2017-12-05T22:39:19.760Z,101245
2017-12-05T22:41:48.816Z,101238
2017-12-05T22:44:17.139Z,101244
2017-12-05T22:46:46.162Z,101240
2017-12-05T22:49:14.459Z,101257
2017-12-05T22:51:42.719Z,101258
2017-12-05T22:54:10.976Z,101258
2017-12-05T22:56:39.283Z,101235
2017-12-05T22:59:07.549Z,101247
2017-12-05T23:01:51.821Z,101241
2017-12-05T23:04:31.759Z,101243
2017-12-05T23:07:00.194Z,101238
2017-12-05T23:09:28.494Z,101224
2017-12-05T23:11:56.756Z,101235
2017-12-05T23:14:25.040Z,101239
2017-12-05T23:16:53.300Z,101240
2017-12-05T23:19:21.650Z,101230
2017-12-05T23:21:49.875Z,101242
2017-12-05T23:24:18.112Z,101225
2017-12-05T23:26:47.203Z,101230
2017-12-05T23:29:15.482Z,101234
2017-12-05T23:31:44.521Z,101239
2017-12-05T23:34:12.849Z,101237
2017-12-05T23:36:41.095Z,101228
2017-12-05T23:39:09.470Z,101250
2017-12-05T23:41:37.818Z,101260
2017-12-05T23:44:06.053Z,101252
2017-12-05T23:46:35.066Z,101263
2017-12-05T23:49:03.362Z,101255
2017-12-05T23:51:31.674Z,101262
2017-12-05T23:53:59.978Z,101264
2017-12-05T23:56:29.007Z,101264
2017-12-05T23:58:57.344Z,101260
